Mobile, AL (36601)

1:38 AM CST on February 24, 2017 (GMT -0600)
Downtown Waterfront | | Change Station

Elev 13 ft 30.69 °N, 88.04 °W | Updated 1 second ago

Fog
Fog
63.0 °F
Feels Like 63.0 °F
N
5.0
Wind Variable Wind from South
Gusts 11.0 mph

Today
High -- | Low -- °F
--% Chance of Precip.
Yesterday
High -- | Low -- °F
Precip. -- in
Pressure 29.82 in
Visibility 0.8 miles
Clouds
Dew Point 62 °F
Humidity 96%
Rainfall 0.00 in
Snow Depth Not available.
6:23 AM 5:47 PM
Waning Crescent, 6% visible
SPECI KBFM 240725Z AUTO 00000KT 3/4SM BR VV005 14/14 A2982 RMK AO2 T01440144
Pressure 29.82 in
Visibility 0.8 miles
Clouds
Dew Point 62 °F
Humidity 96%
Rainfall 0.00 in
Snow Depth Not available.
6:23 AM 5:47 PM
Waning Crescent, 6% visible
SPECI KBFM 240725Z AUTO 00000KT 3/4SM BR VV005 14/14 A2982 RMK AO2 T01440144

Get Your Daily Forecast Email!

Thanks for signing up!

Be on the lookout for a verification email in your inbox.

You'll start receiving the daily forecast at 8 AM.

×

10-Day Weather Forecast

Almanac

Astronomy

Feb. 24, 2017 Rise Set
Actual Time
Civil Twilight
Nautical Twilight
Astronomical Twilight
Moon
Length of Visible Light
Length of Day
Tomorrow will be .
, % of the Moon is Illuminated

Today's Extremes

State Highs State Lows

Community

WunderPhotos

Upload Photos

1,962,540 photos uploaded!

WunderBlog® & News

Nearby

Air Quality

  Air Quality AQ Index Pollutant
Not available.

Snow Depth

Station Depth Elevation

Earthquake Activity

City Distance Mag. Time & Date
Minimum magnitude displayed is 2.5.

Coastal Water Temperatures

Place Temperature

Stations

Nearby Weather Stations

Station Location Temp. Windchill Dew Point Humidity Wind Precip. Elev Updated Type
                   

Watches & Warnings

There are currently no watches in effect.